sensor_id;sensor_type;location;lat;lon;timestamp;temperature;humidity
71142;DHT22;58808;59.366;17.970;2023-09-12T00:01:25;16.00;99.90
71142;DHT22;58808;59.366;17.970;2023-09-12T00:03:51;16.00;99.90
71142;DHT22;58808;59.366;17.970;2023-09-12T00:06:16;16.00;99.90
71142;DHT22;58808;59.366;17.970;2023-09-12T00:08:42;15.90;99.90
71142;DHT22;58808;59.366;17.970;2023-09-12T00:11:09;15.90;99.90
71142;DHT22;58808;59.366;17.970;2023-09-12T00:13:40;16.00;99.90
71142;DHT22;58808;59.366;17.970;2023-09-12T00:16:06;16.00;99.90
71142;DHT22;58808;59.366;17.970;2023-09-12T00:18:35;16.00;99.90
71142;DHT22;58808;59.366;17.970;2023-09-12T00:21:18;16.00;99.90
71142;DHT22;58808;59.366;17.970;2023-09-12T00:23:44;16.00;99.90
71142;DHT22;58808;59.366;17.970;2023-09-12T00:26:10;15.90;99.90
71142;DHT22;58808;59.366;17.970;2023-09-12T00:28:35;16.00;99.90
71142;DHT22;58808;59.366;17.970;2023-09-12T00:31:02;16.00;99.90
71142;DHT22;58808;59.366;17.970;2023-09-12T00:33:28;16.00;99.90
71142;DHT22;58808;59.366;17.970;2023-09-12T00:35:54;16.00;99.90
71142;DHT22;58808;59.366;17.970;2023-09-12T00:38:19;16.00;99.90
71142;DHT22;58808;59.366;17.970;2023-09-12T00:40:45;16.00;99.90
71142;DHT22;58808;59.366;17.970;2023-09-12T00:43:11;16.00;99.90
71142;DHT22;58808;59.366;17.970;2023-09-12T00:45:36;16.00;99.90
71142;DHT22;58808;59.366;17.970;2023-09-12T00:48:04;16.00;99.90
71142;DHT22;58808;59.366;17.970;2023-09-12T00:50:32;16.00;99.90
71142;DHT22;58808;59.366;17.970;2023-09-12T00:52:58;16.00;99.90
71142;DHT22;58808;59.366;17.970;2023-09-12T00:55:24;16.00;99.90
71142;DHT22;58808;59.366;17.970;2023-09-12T00:57:51;16.00;99.90
71142;DHT22;58808;59.366;17.970;2023-09-12T01:00:18;16.00;99.90
71142;DHT22;58808;59.366;17.970;2023-09-12T01:02:46;16.00;99.90
71142;DHT22;58808;59.366;17.970;2023-09-12T01:05:13;16.00;99.90
71142;DHT22;58808;59.366;17.970;2023-09-12T01:07:41;16.10;99.90
71142;DHT22;58808;59.366;17.970;2023-09-12T01:10:07;16.10;99.90
71142;DHT22;58808;59.366;17.970;2023-09-12T01:12:33;16.10;99.90
71142;DHT22;58808;59.366;17.970;2023-09-12T01:14:59;16.10;99.90
71142;DHT22;58808;59.366;17.970;2023-09-12T01:17:25;16.10;99.90
71142;DHT22;58808;59.366;17.970;2023-09-12T01:19:52;16.10;99.90
71142;DHT22;58808;59.366;17.970;2023-09-12T01:28:02;16.00;99.90
71142;DHT22;58808;59.366;17.970;2023-09-12T01:30:31;16.10;99.90
71142;DHT22;58808;59.366;17.970;2023-09-12T01:32:58;16.10;99.90
71142;DHT22;58808;59.366;17.970;2023-09-12T01:35:24;16.00;99.90
71142;DHT22;58808;59.366;17.970;2023-09-12T01:37:50;16.10;99.90
71142;DHT22;58808;59.366;17.970;2023-09-12T01:40:16;16.00;99.90
71142;DHT22;58808;59.366;17.970;2023-09-12T01:42:46;16.10;99.90
71142;DHT22;58808;59.366;17.970;2023-09-12T01:45:17;16.00;99.90
71142;DHT22;58808;59.366;17.970;2023-09-12T01:47:45;16.00;99.90
71142;DHT22;58808;59.366;17.970;2023-09-12T01:50:12;16.00;99.90
71142;DHT22;58808;59.366;17.970;2023-09-12T01:52:40;16.00;99.90
71142;DHT22;58808;59.366;17.970;2023-09-12T01:55:07;16.00;99.90
71142;DHT22;58808;59.366;17.970;2023-09-12T01:57:38;16.00;99.90
71142;DHT22;58808;59.366;17.970;2023-09-12T02:00:04;16.00;99.90
71142;DHT22;58808;59.366;17.970;2023-09-12T02:02:30;16.10;99.90
71142;DHT22;58808;59.366;17.970;2023-09-12T02:05:18;16.00;99.90
71142;DHT22;58808;59.366;17.970;2023-09-12T02:07:46;16.00;99.90
71142;DHT22;58808;59.366;17.970;2023-09-12T02:10:12;16.00;99.90
71142;DHT22;58808;59.366;17.970;2023-09-12T02:12:38;16.00;99.90
71142;DHT22;58808;59.366;17.970;2023-09-12T02:15:04;16.00;99.90
71142;DHT22;58808;59.366;17.970;2023-09-12T02:17:30;16.00;99.90
71142;DHT22;58808;59.366;17.970;2023-09-12T02:19:56;16.10;99.90
71142;DHT22;58808;59.366;17.970;2023-09-12T02:22:22;16.00;99.90
71142;DHT22;58808;59.366;17.970;2023-09-12T02:24:48;16.10;99.90
71142;DHT22;58808;59.366;17.970;2023-09-12T02:27:13;16.10;99.90
71142;DHT22;58808;59.366;17.970;2023-09-12T02:29:40;16.10;99.90
71142;DHT22;58808;59.366;17.970;2023-09-12T02:32:06;16.10;99.90
71142;DHT22;58808;59.366;17.970;2023-09-12T02:34:32;16.10;99.90
71142;DHT22;58808;59.366;17.970;2023-09-12T02:36:58;16.10;99.90
71142;DHT22;58808;59.366;17.970;2023-09-12T02:39:24;16.10;99.90
71142;DHT22;58808;59.366;17.970;2023-09-12T02:41:49;16.10;99.90
71142;DHT22;58808;59.366;17.970;2023-09-12T02:44:15;16.10;99.90
71142;DHT22;58808;59.366;17.970;2023-09-12T02:46:41;16.10;99.90
71142;DHT22;58808;59.366;17.970;2023-09-12T02:49:07;16.10;99.90
71142;DHT22;58808;59.366;17.970;2023-09-12T02:51:33;16.10;99.90
71142;DHT22;58808;59.366;17.970;2023-09-12T02:53:58;16.10;99.90
71142;DHT22;58808;59.366;17.970;2023-09-12T02:56:24;16.10;99.90
71142;DHT22;58808;59.366;17.970;2023-09-12T02:58:50;16.10;99.90
71142;DHT22;58808;59.366;17.970;2023-09-12T03:01:19;16.10;99.90
71142;DHT22;58808;59.366;17.970;2023-09-12T03:03:48;16.10;99.90
71142;DHT22;58808;59.366;17.970;2023-09-12T03:06:15;16.10;99.90
71142;DHT22;58808;59.366;17.970;2023-09-12T03:08:41;16.10;99.90
71142;DHT22;58808;59.366;17.970;2023-09-12T03:11:07;16.10;99.90
71142;DHT22;58808;59.366;17.970;2023-09-12T03:13:33;16.10;99.90
71142;DHT22;58808;59.366;17.970;2023-09-12T03:16:00;16.20;99.90
71142;DHT22;58808;59.366;17.970;2023-09-12T03:18:26;16.20;99.90
71142;DHT22;58808;59.366;17.970;2023-09-12T03:20:51;16.20;99.90
71142;DHT22;58808;59.366;17.970;2023-09-12T03:23:18;16.20;99.90
71142;DHT22;58808;59.366;17.970;2023-09-12T03:25:44;16.20;99.90
71142;DHT22;58808;59.366;17.970;2023-09-12T03:28:10;16.20;99.90
71142;DHT22;58808;59.366;17.970;2023-09-12T03:30:37;16.20;99.90
71142;DHT22;58808;59.366;17.970;2023-09-12T03:33:03;16.20;99.90
71142;DHT22;58808;59.366;17.970;2023-09-12T03:35:31;16.20;99.90
71142;DHT22;58808;59.366;17.970;2023-09-12T03:37:56;16.30;99.90
71142;DHT22;58808;59.366;17.970;2023-09-12T03:40:22;16.20;99.90
71142;DHT22;58808;59.366;17.970;2023-09-12T03:42:48;16.20;99.90
71142;DHT22;58808;59.366;17.970;2023-09-12T03:45:13;16.20;99.90
71142;DHT22;58808;59.366;17.970;2023-09-12T03:47:39;16.20;99.90
71142;DHT22;58808;59.366;17.970;2023-09-12T03:50:05;16.20;99.90
71142;DHT22;58808;59.366;17.970;2023-09-12T03:52:31;16.20;99.90
71142;DHT22;58808;59.366;17.970;2023-09-12T03:54:57;16.20;99.90
71142;DHT22;58808;59.366;17.970;2023-09-12T03:57:22;16.20;99.90
71142;DHT22;58808;59.366;17.970;2023-09-12T03:59:48;16.20;99.90
71142;DHT22;58808;59.366;17.970;2023-09-12T04:02:14;16.20;99.90
71142;DHT22;58808;59.366;17.970;2023-09-12T04:04:39;16.20;99.90
71142;DHT22;58808;59.366;17.970;2023-09-12T04:07:05;16.20;99.90
71142;DHT22;58808;59.366;17.970;2023-09-12T04:09:31;16.30;99.90
71142;DHT22;58808;59.366;17.970;2023-09-12T04:11:57;16.20;99.90
71142;DHT22;58808;59.366;17.970;2023-09-12T04:14:22;16.20;99.90
71142;DHT22;58808;59.366;17.970;2023-09-12T04:16:48;16.20;99.90
71142;DHT22;58808;59.366;17.970;2023-09-12T04:19:14;16.30;99.90
71142;DHT22;58808;59.366;17.970;2023-09-12T04:21:40;16.30;99.90
71142;DHT22;58808;59.366;17.970;2023-09-12T04:24:07;16.30;99.90
71142;DHT22;58808;59.366;17.970;2023-09-12T04:26:33;16.30;99.90
71142;DHT22;58808;59.366;17.970;2023-09-12T04:28:59;16.30;99.90
71142;DHT22;58808;59.366;17.970;2023-09-12T04:31:24;16.30;99.90
71142;DHT22;58808;59.366;17.970;2023-09-12T04:33:51;16.30;99.90
71142;DHT22;58808;59.366;17.970;2023-09-12T04:36:18;16.30;99.90
71142;DHT22;58808;59.366;17.970;2023-09-12T04:38:43;16.30;99.90
71142;DHT22;58808;59.366;17.970;2023-09-12T04:41:12;16.30;99.90
71142;DHT22;58808;59.366;17.970;2023-09-12T04:43:40;16.30;99.90
71142;DHT22;58808;59.366;17.970;2023-09-12T04:46:06;16.30;99.90
71142;DHT22;58808;59.366;17.970;2023-09-12T04:48:32;16.30;99.90
71142;DHT22;58808;59.366;17.970;2023-09-12T04:50:58;16.30;99.90
71142;DHT22;58808;59.366;17.970;2023-09-12T04:53:24;16.30;99.90
71142;DHT22;58808;59.366;17.970;2023-09-12T04:55:52;16.30;99.90
71142;DHT22;58808;59.366;17.970;2023-09-12T04:58:18;16.30;99.90
71142;DHT22;58808;59.366;17.970;2023-09-12T05:00:45;16.30;99.90
71142;DHT22;58808;59.366;17.970;2023-09-12T05:03:10;16.30;99.90
71142;DHT22;58808;59.366;17.970;2023-09-12T05:05:36;16.30;99.90
71142;DHT22;58808;59.366;17.970;2023-09-12T05:08:02;16.30;99.90
71142;DHT22;58808;59.366;17.970;2023-09-12T05:10:29;16.30;99.90
71142;DHT22;58808;59.366;17.970;2023-09-12T05:12:55;16.30;99.90
71142;DHT22;58808;59.366;17.970;2023-09-12T05:15:21;16.30;99.90
71142;DHT22;58808;59.366;17.970;2023-09-12T05:17:47;16.30;99.90
71142;DHT22;58808;59.366;17.970;2023-09-12T05:20:12;16.30;99.90
71142;DHT22;58808;59.366;17.970;2023-09-12T05:22:38;16.30;99.90
71142;DHT22;58808;59.366;17.970;2023-09-12T05:25:04;16.30;99.90
71142;DHT22;58808;59.366;17.970;2023-09-12T05:27:30;16.20;99.90
71142;DHT22;58808;59.366;17.970;2023-09-12T05:29:55;16.20;99.90
71142;DHT22;58808;59.366;17.970;2023-09-12T05:32:21;16.30;99.90
71142;DHT22;58808;59.366;17.970;2023-09-12T05:34:47;16.20;99.90
71142;DHT22;58808;59.366;17.970;2023-09-12T05:37:15;16.20;99.90
71142;DHT22;58808;59.366;17.970;2023-09-12T05:39:41;16.30;99.90
71142;DHT22;58808;59.366;17.970;2023-09-12T05:42:07;16.30;99.90
71142;DHT22;58808;59.366;17.970;2023-09-12T05:44:33;16.30;99.90
71142;DHT22;58808;59.366;17.970;2023-09-12T05:46:58;16.30;99.90
71142;DHT22;58808;59.366;17.970;2023-09-12T05:49:24;16.30;99.90
71142;DHT22;58808;59.366;17.970;2023-09-12T05:51:50;16.30;99.90
71142;DHT22;58808;59.366;17.970;2023-09-12T05:54:16;16.30;99.90
71142;DHT22;58808;59.366;17.970;2023-09-12T05:56:42;16.40;99.90
71142;DHT22;58808;59.366;17.970;2023-09-12T05:59:08;16.40;99.90
71142;DHT22;58808;59.366;17.970;2023-09-12T06:01:33;16.40;99.90
71142;DHT22;58808;59.366;17.970;2023-09-12T06:03:59;16.40;99.90
71142;DHT22;58808;59.366;17.970;2023-09-12T06:06:25;16.40;99.90
71142;DHT22;58808;59.366;17.970;2023-09-12T06:08:51;16.40;99.90
71142;DHT22;58808;59.366;17.970;2023-09-12T06:11:19;16.40;99.90
71142;DHT22;58808;59.366;17.970;2023-09-12T06:13:44;16.40;99.90
71142;DHT22;58808;59.366;17.970;2023-09-12T06:16:10;16.40;99.90
71142;DHT22;58808;59.366;17.970;2023-09-12T06:18:35;16.40;99.90
71142;DHT22;58808;59.366;17.970;2023-09-12T06:21:01;16.40;99.90
71142;DHT22;58808;59.366;17.970;2023-09-12T06:23:34;16.40;99.90
71142;DHT22;58808;59.366;17.970;2023-09-12T06:25:59;16.40;99.90
71142;DHT22;58808;59.366;17.970;2023-09-12T06:28:26;16.50;99.90
71142;DHT22;58808;59.366;17.970;2023-09-12T06:30:52;16.50;99.90
71142;DHT22;58808;59.366;17.970;2023-09-12T06:33:18;16.50;99.90
71142;DHT22;58808;59.366;17.970;2023-09-12T06:35:44;16.50;99.90
71142;DHT22;58808;59.366;17.970;2023-09-12T06:38:13;16.60;99.90
71142;DHT22;58808;59.366;17.970;2023-09-12T06:40:38;16.60;99.90
71142;DHT22;58808;59.366;17.970;2023-09-12T06:43:04;16.60;99.90
71142;DHT22;58808;59.366;17.970;2023-09-12T06:45:30;16.60;99.90
71142;DHT22;58808;59.366;17.970;2023-09-12T06:47:58;16.60;99.90
71142;DHT22;58808;59.366;17.970;2023-09-12T06:50:23;16.70;99.90
71142;DHT22;58808;59.366;17.970;2023-09-12T06:52:49;16.70;99.90
71142;DHT22;58808;59.366;17.970;2023-09-12T06:55:15;16.70;99.90
71142;DHT22;58808;59.366;17.970;2023-09-12T06:57:40;16.70;99.90
71142;DHT22;58808;59.366;17.970;2023-09-12T07:00:07;16.70;99.90
71142;DHT22;58808;59.366;17.970;2023-09-12T07:02:34;16.80;99.90
71142;DHT22;58808;59.366;17.970;2023-09-12T07:04:59;16.80;99.90
71142;DHT22;58808;59.366;17.970;2023-09-12T07:07:25;16.80;99.90
71142;DHT22;58808;59.366;17.970;2023-09-12T07:09:51;16.80;99.90
71142;DHT22;58808;59.366;17.970;2023-09-12T07:12:17;16.80;99.90
71142;DHT22;58808;59.366;17.970;2023-09-12T07:14:42;16.90;99.90
71142;DHT22;58808;59.366;17.970;2023-09-12T07:17:08;16.90;99.90
71142;DHT22;58808;59.366;17.970;2023-09-12T07:19:34;16.90;99.90
71142;DHT22;58808;59.366;17.970;2023-09-12T07:21:59;16.90;99.90
71142;DHT22;58808;59.366;17.970;2023-09-12T07:24:26;16.90;99.90
71142;DHT22;58808;59.366;17.970;2023-09-12T07:26:52;16.90;99.90
71142;DHT22;58808;59.366;17.970;2023-09-12T07:29:17;16.90;99.90
71142;DHT22;58808;59.366;17.970;2023-09-12T07:31:43;16.90;99.90
71142;DHT22;58808;59.366;17.970;2023-09-12T07:34:09;16.90;99.90
71142;DHT22;58808;59.366;17.970;2023-09-12T07:36:35;17.00;99.90
71142;DHT22;58808;59.366;17.970;2023-09-12T07:39:01;17.00;99.90
71142;DHT22;58808;59.366;17.970;2023-09-12T07:41:29;17.10;99.90
71142;DHT22;58808;59.366;17.970;2023-09-12T07:43:54;17.10;99.90
71142;DHT22;58808;59.366;17.970;2023-09-12T07:46:20;17.10;99.90
71142;DHT22;58808;59.366;17.970;2023-09-12T07:48:46;17.10;99.90
71142;DHT22;58808;59.366;17.970;2023-09-12T07:51:13;17.20;99.90
71142;DHT22;58808;59.366;17.970;2023-09-12T07:53:40;17.20;99.90
71142;DHT22;58808;59.366;17.970;2023-09-12T07:56:05;17.20;99.90
71142;DHT22;58808;59.366;17.970;2023-09-12T07:58:31;17.20;99.90
71142;DHT22;58808;59.366;17.970;2023-09-12T08:00:57;17.30;99.90
71142;DHT22;58808;59.366;17.970;2023-09-12T08:03:22;17.30;99.90
71142;DHT22;58808;59.366;17.970;2023-09-12T08:05:55;17.30;99.90
71142;DHT22;58808;59.366;17.970;2023-09-12T08:08:22;17.30;99.90
71142;DHT22;58808;59.366;17.970;2023-09-12T08:10:48;17.30;99.90
71142;DHT22;58808;59.366;17.970;2023-09-12T08:13:14;17.30;99.90
71142;DHT22;58808;59.366;17.970;2023-09-12T08:15:40;17.40;99.90
71142;DHT22;58808;59.366;17.970;2023-09-12T08:18:06;17.40;99.90
71142;DHT22;58808;59.366;17.970;2023-09-12T08:20:31;17.50;99.90
71142;DHT22;58808;59.366;17.970;2023-09-12T08:22:57;17.50;99.90
71142;DHT22;58808;59.366;17.970;2023-09-12T08:25:22;17.50;99.90
71142;DHT22;58808;59.366;17.970;2023-09-12T08:27:50;17.60;99.90
71142;DHT22;58808;59.366;17.970;2023-09-12T08:30:16;17.60;99.90
71142;DHT22;58808;59.366;17.970;2023-09-12T08:32:42;17.70;99.90
71142;DHT22;58808;59.366;17.970;2023-09-12T08:35:11;17.70;99.90
71142;DHT22;58808;59.366;17.970;2023-09-12T08:37:41;17.70;99.90
71142;DHT22;58808;59.366;17.970;2023-09-12T08:40:08;17.70;99.90
71142;DHT22;58808;59.366;17.970;2023-09-12T08:42:42;17.70;99.90
71142;DHT22;58808;59.366;17.970;2023-09-12T08:45:27;17.80;99.90
71142;DHT22;58808;59.366;17.970;2023-09-12T08:47:53;17.80;99.90
71142;DHT22;58808;59.366;17.970;2023-09-12T08:50:21;17.80;99.90
71142;DHT22;58808;59.366;17.970;2023-09-12T08:52:48;17.90;99.90
71142;DHT22;58808;59.366;17.970;2023-09-12T08:55:14;17.90;99.90
71142;DHT22;58808;59.366;17.970;2023-09-12T08:57:42;18.00;99.90
71142;DHT22;58808;59.366;17.970;2023-09-12T09:00:09;18.00;99.90
71142;DHT22;58808;59.366;17.970;2023-09-12T09:02:36;18.00;99.90
71142;DHT22;58808;59.366;17.970;2023-09-12T09:05:04;18.00;99.90
71142;DHT22;58808;59.366;17.970;2023-09-12T09:07:39;18.10;99.90
71142;DHT22;58808;59.366;17.970;2023-09-12T09:10:06;18.10;99.90
71142;DHT22;58808;59.366;17.970;2023-09-12T09:12:34;18.10;99.90
71142;DHT22;58808;59.366;17.970;2023-09-12T09:15:29;18.10;99.90
71142;DHT22;58808;59.366;17.970;2023-09-12T09:17:56;18.10;99.90
71142;DHT22;58808;59.366;17.970;2023-09-12T09:23:06;18.10;99.90
71142;DHT22;58808;59.366;17.970;2023-09-12T09:25:33;18.20;99.90
71142;DHT22;58808;59.366;17.970;2023-09-12T09:28:03;18.10;99.90
71142;DHT22;58808;59.366;17.970;2023-09-12T09:30:40;18.10;99.90
71142;DHT22;58808;59.366;17.970;2023-09-12T09:33:06;18.10;99.90
71142;DHT22;58808;59.366;17.970;2023-09-12T09:35:32;18.10;99.90
71142;DHT22;58808;59.366;17.970;2023-09-12T09:37:58;18.20;99.90
71142;DHT22;58808;59.366;17.970;2023-09-12T09:40:24;18.20;99.90
71142;DHT22;58808;59.366;17.970;2023-09-12T09:42:54;18.20;99.90
71142;DHT22;58808;59.366;17.970;2023-09-12T09:45:21;18.20;99.90
71142;DHT22;58808;59.366;17.970;2023-09-12T09:47:49;18.20;99.90
71142;DHT22;58808;59.366;17.970;2023-09-12T09:50:15;18.30;99.90
71142;DHT22;58808;59.366;17.970;2023-09-12T09:52:43;18.30;99.90
71142;DHT22;58808;59.366;17.970;2023-09-12T09:55:13;18.40;99.90
71142;DHT22;58808;59.366;17.970;2023-09-12T09:57:40;18.40;99.90
71142;DHT22;58808;59.366;17.970;2023-09-12T10:00:07;18.40;99.90
71142;DHT22;58808;59.366;17.970;2023-09-12T10:02:38;18.40;99.90
71142;DHT22;58808;59.366;17.970;2023-09-12T10:05:05;18.50;99.90
71142;DHT22;58808;59.366;17.970;2023-09-12T10:07:37;18.40;99.90
71142;DHT22;58808;59.366;17.970;2023-09-12T10:10:04;18.50;99.90
71142;DHT22;58808;59.366;17.970;2023-09-12T10:12:39;18.50;99.90
71142;DHT22;58808;59.366;17.970;2023-09-12T10:15:06;18.60;99.90
71142;DHT22;58808;59.366;17.970;2023-09-12T10:17:36;18.70;99.90
71142;DHT22;58808;59.366;17.970;2023-09-12T10:20:03;18.70;99.90
71142;DHT22;58808;59.366;17.970;2023-09-12T10:22:40;18.70;99.90
71142;DHT22;58808;59.366;17.970;2023-09-12T10:25:09;18.70;99.90
71142;DHT22;58808;59.366;17.970;2023-09-12T10:27:34;18.80;99.90
71142;DHT22;58808;59.366;17.970;2023-09-12T10:30:01;18.80;99.90
71142;DHT22;58808;59.366;17.970;2023-09-12T10:32:28;19.00;99.90
71142;DHT22;58808;59.366;17.970;2023-09-12T10:34:58;19.10;99.90
71142;DHT22;58808;59.366;17.970;2023-09-12T10:37:53;19.10;99.90
71142;DHT22;58808;59.366;17.970;2023-09-12T10:40:20;19.20;99.90
71142;DHT22;58808;59.366;17.970;2023-09-12T10:42:47;19.20;99.90
71142;DHT22;58808;59.366;17.970;2023-09-12T10:45:13;19.20;99.90
71142;DHT22;58808;59.366;17.970;2023-09-12T10:47:39;19.20;99.90
71142;DHT22;58808;59.366;17.970;2023-09-12T10:50:06;19.00;99.90
71142;DHT22;58808;59.366;17.970;2023-09-12T10:52:32;18.90;99.90
71142;DHT22;58808;59.366;17.970;2023-09-12T10:55:04;18.90;99.90
71142;DHT22;58808;59.366;17.970;2023-09-12T10:57:30;18.90;99.90
71142;DHT22;58808;59.366;17.970;2023-09-12T11:02:36;18.80;99.90
71142;DHT22;58808;59.366;17.970;2023-09-12T11:05:07;18.80;99.90
71142;DHT22;58808;59.366;17.970;2023-09-12T11:12:47;18.70;99.90
71142;DHT22;58808;59.366;17.970;2023-09-12T11:15:14;18.70;99.90
71142;DHT22;58808;59.366;17.970;2023-09-12T11:17:47;18.70;99.90
71142;DHT22;58808;59.366;17.970;2023-09-12T11:20:13;18.80;99.90
71142;DHT22;58808;59.366;17.970;2023-09-12T11:22:44;18.80;99.90
71142;DHT22;58808;59.366;17.970;2023-09-12T11:25:20;18.80;99.90
71142;DHT22;58808;59.366;17.970;2023-09-12T11:30:18;19.00;99.90
71142;DHT22;58808;59.366;17.970;2023-09-12T11:32:46;19.10;99.90
71142;DHT22;58808;59.366;17.970;2023-09-12T11:35:13;19.10;99.90
71142;DHT22;58808;59.366;17.970;2023-09-12T11:37:39;19.20;99.90
71142;DHT22;58808;59.366;17.970;2023-09-12T11:42:39;19.40;99.90
71142;DHT22;58808;59.366;17.970;2023-09-12T11:45:09;19.40;99.90
71142;DHT22;58808;59.366;17.970;2023-09-12T11:47:40;19.30;99.90
71142;DHT22;58808;59.366;17.970;2023-09-12T11:50:06;19.30;99.90
71142;DHT22;58808;59.366;17.970;2023-09-12T11:52:36;19.30;99.90
71142;DHT22;58808;59.366;17.970;2023-09-12T11:55:04;19.20;99.90
71142;DHT22;58808;59.366;17.970;2023-09-12T11:57:29;19.30;99.90
71142;DHT22;58808;59.366;17.970;2023-09-12T11:59:58;19.20;99.90
71142;DHT22;58808;59.366;17.970;2023-09-12T12:02:33;19.20;99.90
71142;DHT22;58808;59.366;17.970;2023-09-12T12:04:59;19.20;99.90
71142;DHT22;58808;59.366;17.970;2023-09-12T12:07:24;19.20;99.90
71142;DHT22;58808;59.366;17.970;2023-09-12T12:09:50;19.20;99.90
71142;DHT22;58808;59.366;17.970;2023-09-12T12:12:16;19.20;99.90
71142;DHT22;58808;59.366;17.970;2023-09-12T12:14:42;19.20;99.90
71142;DHT22;58808;59.366;17.970;2023-09-12T12:17:10;19.20;99.90
71142;DHT22;58808;59.366;17.970;2023-09-12T12:19:37;19.30;99.90
71142;DHT22;58808;59.366;17.970;2023-09-12T12:22:04;19.30;99.90
71142;DHT22;58808;59.366;17.970;2023-09-12T12:24:41;19.40;99.90
71142;DHT22;58808;59.366;17.970;2023-09-12T12:27:06;19.40;99.90
71142;DHT22;58808;59.366;17.970;2023-09-12T12:29:34;19.40;99.90
71142;DHT22;58808;59.366;17.970;2023-09-12T12:32:01;19.50;99.90
71142;DHT22;58808;59.366;17.970;2023-09-12T12:34:27;19.60;99.90
71142;DHT22;58808;59.366;17.970;2023-09-12T12:36:56;19.80;99.90
71142;DHT22;58808;59.366;17.970;2023-09-12T12:39:23;20.10;99.90
71142;DHT22;58808;59.366;17.970;2023-09-12T12:41:52;20.30;99.90
71142;DHT22;58808;59.366;17.970;2023-09-12T12:44:18;20.60;99.90
71142;DHT22;58808;59.366;17.970;2023-09-12T12:46:54;20.80;99.90
71142;DHT22;58808;59.366;17.970;2023-09-12T12:49:20;21.00;99.90
71142;DHT22;58808;59.366;17.970;2023-09-12T12:51:47;21.10;99.90
71142;DHT22;58808;59.366;17.970;2023-09-12T12:54:14;21.10;99.90
71142;DHT22;58808;59.366;17.970;2023-09-12T12:56:40;21.20;99.90
71142;DHT22;58808;59.366;17.970;2023-09-12T12:59:07;21.20;99.90
71142;DHT22;58808;59.366;17.970;2023-09-12T13:01:38;21.20;99.90
71142;DHT22;58808;59.366;17.970;2023-09-12T13:04:24;21.20;99.90
71142;DHT22;58808;59.366;17.970;2023-09-12T13:06:50;21.20;99.90
71142;DHT22;58808;59.366;17.970;2023-09-12T13:09:15;21.10;99.90
71142;DHT22;58808;59.366;17.970;2023-09-12T13:11:42;21.00;99.90
71142;DHT22;58808;59.366;17.970;2023-09-12T13:14:08;20.90;99.90
71142;DHT22;58808;59.366;17.970;2023-09-12T13:16:36;20.80;99.90
71142;DHT22;58808;59.366;17.970;2023-09-12T13:19:03;20.60;99.90
71142;DHT22;58808;59.366;17.970;2023-09-12T13:21:29;20.50;99.90
71142;DHT22;58808;59.366;17.970;2023-09-12T13:23:57;20.40;99.90
71142;DHT22;58808;59.366;17.970;2023-09-12T13:26:23;20.40;99.90
71142;DHT22;58808;59.366;17.970;2023-09-12T13:28:48;20.30;99.90
71142;DHT22;58808;59.366;17.970;2023-09-12T13:31:14;20.30;99.90
71142;DHT22;58808;59.366;17.970;2023-09-12T13:33:40;20.30;99.90
71142;DHT22;58808;59.366;17.970;2023-09-12T13:36:07;20.30;99.90
71142;DHT22;58808;59.366;17.970;2023-09-12T13:38:33;20.30;99.90
71142;DHT22;58808;59.366;17.970;2023-09-12T13:40:58;20.20;99.90
71142;DHT22;58808;59.366;17.970;2023-09-12T13:43:24;20.20;99.90
71142;DHT22;58808;59.366;17.970;2023-09-12T13:45:50;20.20;99.90
71142;DHT22;58808;59.366;17.970;2023-09-12T13:48:16;20.20;99.90
71142;DHT22;58808;59.366;17.970;2023-09-12T13:50:41;20.20;99.90
71142;DHT22;58808;59.366;17.970;2023-09-12T13:53:10;20.20;99.90
71142;DHT22;58808;59.366;17.970;2023-09-12T13:55:36;20.20;99.90
71142;DHT22;58808;59.366;17.970;2023-09-12T13:58:03;20.20;99.90
71142;DHT22;58808;59.366;17.970;2023-09-12T14:00:33;20.20;99.90
71142;DHT22;58808;59.366;17.970;2023-09-12T14:02:59;20.20;99.90
71142;DHT22;58808;59.366;17.970;2023-09-12T14:05:25;20.20;99.90
71142;DHT22;58808;59.366;17.970;2023-09-12T14:07:51;20.20;99.90
71142;DHT22;58808;59.366;17.970;2023-09-12T14:10:17;20.20;99.90
71142;DHT22;58808;59.366;17.970;2023-09-12T14:12:42;20.20;99.90
71142;DHT22;58808;59.366;17.970;2023-09-12T14:15:10;20.20;99.90
71142;DHT22;58808;59.366;17.970;2023-09-12T14:17:37;20.20;99.90
71142;DHT22;58808;59.366;17.970;2023-09-12T14:20:02;20.20;99.90
71142;DHT22;58808;59.366;17.970;2023-09-12T14:22:28;20.20;99.90
71142;DHT22;58808;59.366;17.970;2023-09-12T14:24:55;20.20;99.90
71142;DHT22;58808;59.366;17.970;2023-09-12T14:27:20;20.20;99.90
71142;DHT22;58808;59.366;17.970;2023-09-12T14:29:46;20.20;99.90
71142;DHT22;58808;59.366;17.970;2023-09-12T14:32:14;20.20;99.90
71142;DHT22;58808;59.366;17.970;2023-09-12T14:34:40;20.20;99.90
71142;DHT22;58808;59.366;17.970;2023-09-12T14:37:06;20.30;99.90
71142;DHT22;58808;59.366;17.970;2023-09-12T14:39:31;20.20;99.90
71142;DHT22;58808;59.366;17.970;2023-09-12T14:41:57;20.20;99.90
71142;DHT22;58808;59.366;17.970;2023-09-12T14:44:24;20.30;99.90
71142;DHT22;58808;59.366;17.970;2023-09-12T14:46:50;20.30;99.90
71142;DHT22;58808;59.366;17.970;2023-09-12T14:49:16;20.30;99.90
71142;DHT22;58808;59.366;17.970;2023-09-12T14:51:43;20.30;99.90
71142;DHT22;58808;59.366;17.970;2023-09-12T14:54:09;20.30;99.90
71142;DHT22;58808;59.366;17.970;2023-09-12T14:56:35;20.30;99.90
71142;DHT22;58808;59.366;17.970;2023-09-12T14:59:03;20.30;99.90
71142;DHT22;58808;59.366;17.970;2023-09-12T15:01:29;20.30;99.90
71142;DHT22;58808;59.366;17.970;2023-09-12T15:03:55;20.30;99.90
71142;DHT22;58808;59.366;17.970;2023-09-12T15:06:22;20.20;99.90
71142;DHT22;58808;59.366;17.970;2023-09-12T15:08:47;20.20;99.90
71142;DHT22;58808;59.366;17.970;2023-09-12T15:11:14;20.30;99.90
71142;DHT22;58808;59.366;17.970;2023-09-12T15:13:39;20.20;99.90
71142;DHT22;58808;59.366;17.970;2023-09-12T15:16:05;20.20;99.90
71142;DHT22;58808;59.366;17.970;2023-09-12T15:18:31;20.20;99.90
71142;DHT22;58808;59.366;17.970;2023-09-12T15:20:57;20.30;99.90
71142;DHT22;58808;59.366;17.970;2023-09-12T15:23:23;20.20;99.90
71142;DHT22;58808;59.366;17.970;2023-09-12T15:25:50;20.30;99.90
71142;DHT22;58808;59.366;17.970;2023-09-12T15:28:16;20.20;99.90
71142;DHT22;58808;59.366;17.970;2023-09-12T15:30:42;20.30;99.90
71142;DHT22;58808;59.366;17.970;2023-09-12T15:33:08;20.20;99.90
71142;DHT22;58808;59.366;17.970;2023-09-12T15:35:33;20.20;99.90